createdAt,value
2023-04-05T00:00:24.612Z,8.300
2023-04-05T00:01:26.307Z,7.400
2023-04-05T00:02:22.477Z,8.100
2023-04-05T00:03:22.961Z,7
2023-04-05T00:04:22.999Z,8.300
2023-04-05T00:05:23.265Z,8.600
2023-04-05T00:06:23.355Z,7.5
2023-04-05T00:07:23.457Z,7.599
2023-04-05T00:08:23.013Z,8.800
2023-04-05T00:09:23.512Z,8.300
2023-04-05T00:11:23.006Z,9.100
2023-04-05T00:12:23.021Z,8.100
2023-04-05T00:13:22.960Z,8.199
2023-04-05T00:14:22.606Z,8.699
2023-04-05T00:15:23.591Z,7.900
2023-04-05T00:16:23.646Z,9.100
2023-04-05T00:17:23.514Z,8.300
2023-04-05T00:18:23.523Z,7.199
2023-04-05T00:19:23.122Z,7.400
2023-04-05T00:20:23.263Z,9.100
2023-04-05T00:21:23.539Z,8.100
2023-04-05T00:22:22.675Z,9.100
2023-04-05T00:23:23.405Z,7.099
2023-04-05T00:24:23.086Z,7.199
2023-04-05T00:25:23.210Z,8.5
2023-04-05T00:26:23.024Z,7.800
2023-04-05T00:28:23.007Z,8.399
2023-04-05T00:29:22.956Z,7.900
2023-04-05T00:30:23.104Z,7
2023-04-05T00:31:23.103Z,8.899
2023-04-05T00:32:23.166Z,7.199
2023-04-05T00:33:23.040Z,8.600
2023-04-05T00:34:23.484Z,8.100
2023-04-05T00:35:23.358Z,6.699
2023-04-05T00:36:23.324Z,7.599
2023-04-05T00:37:22.958Z,8.100
2023-04-05T00:38:23.119Z,7.5
2023-04-05T00:39:23.437Z,8.5
2023-04-05T00:40:24.039Z,7.800
2023-04-05T00:42:23.088Z,8
2023-04-05T00:43:22.889Z,7
2023-04-05T00:44:22.517Z,7.699
2023-04-05T00:45:23.617Z,7.599
2023-04-05T00:46:23.691Z,7.300
2023-04-05T00:47:23.480Z,7.099
2023-04-05T00:48:22.882Z,7.699
2023-04-05T00:49:22.837Z,8
2023-04-05T00:50:23.672Z,6.699
2023-04-05T00:51:23.372Z,7.5
2023-04-05T00:52:23.309Z,7.199
2023-04-05T00:53:23.079Z,7.599
2023-04-05T00:54:22.803Z,8.100
2023-04-05T00:55:23.003Z,9.100
2023-04-05T00:56:23.529Z,8.199
2023-04-05T00:57:23.281Z,6.599
2023-04-05T00:58:23.421Z,7.400
2023-04-05T00:59:22.913Z,8.600
2023-04-05T01:00:23.607Z,7.099
2023-04-05T01:01:23.168Z,7.599
2023-04-05T01:02:22.874Z,7.400
2023-04-05T01:03:23.274Z,7.199
2023-04-05T01:04:22.858Z,7.5
2023-04-05T01:05:22.976Z,8.199
2023-04-05T01:06:22.617Z,7.800
2023-04-05T01:07:23.056Z,8.199
2023-04-05T01:08:22.991Z,7.599
2023-04-05T01:09:22.830Z,8.600
2023-04-05T01:10:23.182Z,8.699
2023-04-05T01:11:24.173Z,7.099
2023-04-05T01:12:23.086Z,7.300
2023-04-05T01:13:23.283Z,7
2023-04-05T01:14:23.064Z,7.300
2023-04-05T01:15:23.877Z,7.5
2023-04-05T01:16:23.335Z,7.800
2023-04-05T01:17:23.108Z,8
2023-04-05T01:18:23.057Z,7.099
2023-04-05T01:19:23.002Z,6.800
2023-04-05T01:20:23.225Z,7.900
2023-04-05T01:21:23.511Z,7.400
2023-04-05T01:23:22.821Z,9.100
2023-04-05T01:24:23.265Z,8.100
2023-04-05T01:25:23.390Z,8.199
2023-04-05T01:26:23.047Z,10.10
2023-04-05T01:27:22.998Z,8.399
2023-04-05T01:28:23.097Z,8.600
2023-04-05T01:29:23.104Z,8.399
2023-04-05T01:30:23.659Z,8.199
2023-04-05T01:31:23.025Z,6.699
2023-04-05T01:32:22.822Z,8.600
2023-04-05T01:33:22.820Z,8.100
2023-04-05T01:34:22.720Z,7.900
2023-04-05T01:36:23.314Z,8.699
2023-04-05T01:37:23.209Z,7.800
2023-04-05T01:38:22.836Z,8.100
2023-04-05T01:39:23.533Z,7.699
2023-04-05T01:40:23.308Z,7.5
2023-04-05T01:41:22.935Z,7.400
2023-04-05T01:42:23.097Z,8.399
2023-04-05T01:43:22.758Z,7.400
2023-04-05T01:44:22.649Z,6.699
2023-04-05T01:45:23.846Z,8.199
2023-04-05T01:46:23.142Z,8
2023-04-05T01:47:22.985Z,7.699
2023-04-05T01:48:23.221Z,8.100
2023-04-05T01:49:22.966Z,9.399
2023-04-05T01:50:23.372Z,7.699
2023-04-05T01:51:23.004Z,7.599
2023-04-05T01:52:23.031Z,9.699
2023-04-05T01:53:22.721Z,7.699
2023-04-05T01:54:22.986Z,7.900
2023-04-05T01:55:22.975Z,7.199
2023-04-05T01:56:22.730Z,8
2023-04-05T01:57:22.433Z,8.699
2023-04-05T01:58:23.130Z,7
2023-04-05T01:59:23.403Z,7.599
2023-04-05T02:00:24.188Z,8
2023-04-05T02:01:23.154Z,7.599
2023-04-05T02:02:23.121Z,7.800
2023-04-05T02:03:22.834Z,9.100
2023-04-05T02:04:22.980Z,7.5
2023-04-05T02:05:23.186Z,7.900
2023-04-05T02:06:23.795Z,7.599
2023-04-05T02:07:23.040Z,8.699
2023-04-05T02:08:23.441Z,7.599
2023-04-05T02:09:23.318Z,7.800
2023-04-05T02:10:23.411Z,8
2023-04-05T02:11:23.097Z,7.599
2023-04-05T02:12:23.189Z,7.300
2023-04-05T02:13:22.671Z,8.800
2023-04-05T02:14:23.168Z,8.100
2023-04-05T02:15:23.483Z,7.800
2023-04-05T02:16:23.497Z,7.699
2023-04-05T02:17:23.351Z,8.199
2023-04-05T02:18:22.999Z,7.400
2023-04-05T02:19:22.991Z,8.300
2023-04-05T02:20:23.553Z,7.800
2023-04-05T02:21:22.879Z,7.5
2023-04-05T02:22:23.089Z,7.599
2023-04-05T02:23:23.048Z,7.199
2023-04-05T02:24:22.398Z,7.5
2023-04-05T02:25:22.867Z,6.699
2023-04-05T02:26:23.047Z,8.100
2023-04-05T02:27:23.242Z,7.599
2023-04-05T02:28:23.104Z,7.099
2023-04-05T02:29:23.177Z,8.199
2023-04-05T02:30:23.337Z,7.900
2023-04-05T02:31:23.022Z,7.300
2023-04-05T02:32:23.608Z,8.5
2023-04-05T02:33:22.775Z,7.599
2023-04-05T02:34:22.413Z,7.300
2023-04-05T02:35:23.031Z,6.5
2023-04-05T02:36:22.627Z,7.199
2023-04-05T02:37:23.136Z,6.900
2023-04-05T02:38:22.436Z,6.5
2023-04-05T02:39:23.243Z,6.900
2023-04-05T02:40:23.569Z,6.5
2023-04-05T02:41:23.207Z,6.599
2023-04-05T02:42:23.039Z,7.400
2023-04-05T02:43:22.958Z,7.199
2023-04-05T02:44:22.815Z,7.699
2023-04-05T02:45:23.693Z,6.900
2023-04-05T02:46:22.985Z,8.399
2023-04-05T02:47:23.529Z,7
2023-04-05T02:48:23.218Z,7.199
2023-04-05T02:49:22.672Z,7.5
2023-04-05T02:50:23.508Z,6.099
2023-04-05T02:51:23.081Z,6.900
2023-04-05T02:52:23.170Z,7.900
2023-04-05T02:53:23.011Z,6.800
2023-04-05T02:54:23.236Z,7.5
2023-04-05T02:55:23.389Z,7.400
2023-04-05T02:57:23.260Z,8.300
2023-04-05T02:58:23.527Z,6.900
2023-04-05T02:59:22.865Z,7.5
2023-04-05T03:00:24.051Z,6.599
2023-04-05T03:01:23.234Z,7.5
2023-04-05T03:02:23.524Z,7.400
2023-04-05T03:03:23.546Z,7.599
2023-04-05T03:04:22.917Z,7.5
2023-04-05T03:05:23.358Z,8
2023-04-05T03:06:23.214Z,8.5
2023-04-05T03:07:22.866Z,6.800
2023-04-05T03:08:22.998Z,6.699
2023-04-05T03:09:23.598Z,6.199
2023-04-05T03:10:23.626Z,7.599
2023-04-05T03:11:22.975Z,6.699
2023-04-05T03:12:23.278Z,7
2023-04-05T03:13:23.335Z,7.199
2023-04-05T03:14:23.365Z,7
2023-04-05T03:15:22.935Z,6.800
2023-04-05T03:16:23.984Z,8.300
2023-04-05T03:17:22.980Z,6.900
2023-04-05T03:18:23.240Z,7.400
2023-04-05T03:19:23.076Z,7.599
2023-04-05T03:20:23.244Z,7.400
2023-04-05T03:21:23.362Z,6.800
2023-04-05T03:22:23.252Z,6.599
2023-04-05T03:23:23.345Z,7.599
2023-04-05T03:24:23.672Z,7.099
2023-04-05T03:25:23.439Z,7.5
2023-04-05T03:26:23.076Z,7.800
2023-04-05T03:27:22.786Z,7
2023-04-05T03:28:22.804Z,6.5
2023-04-05T03:29:23.258Z,6.599
2023-04-05T03:30:23.220Z,7.300
2023-04-05T03:31:22.949Z,7.400
2023-04-05T03:32:23.271Z,6.699
2023-04-05T03:33:23.415Z,6.800
2023-04-05T03:34:23.035Z,6.900
2023-04-05T03:35:22.461Z,7.400
2023-04-05T03:36:23.430Z,6.699
2023-04-05T03:37:22.961Z,7.300
2023-04-05T03:38:23.137Z,7.5
2023-04-05T03:39:23.126Z,7.900
2023-04-05T03:40:23.306Z,8.5
2023-04-05T03:41:23.075Z,7.5
2023-04-05T03:42:23.239Z,7.699
2023-04-05T03:43:23.063Z,7.300
2023-04-05T03:44:23.174Z,6.900
2023-04-05T03:45:24.691Z,7.400
2023-04-05T03:46:23.555Z,6.800
2023-04-05T03:47:23.340Z,9
2023-04-05T03:48:23.043Z,7.099
2023-04-05T03:49:22.641Z,7.699
2023-04-05T03:50:23.492Z,7.099
2023-04-05T03:51:23.358Z,7.300
2023-04-05T03:52:23.261Z,8.100
2023-04-05T03:53:23.045Z,7.800
2023-04-05T03:54:23.236Z,7.900
2023-04-05T03:56:23.598Z,7
2023-04-05T03:57:22.982Z,7.5
2023-04-05T03:58:22.764Z,8.5
2023-04-05T03:59:22.916Z,6.599
2023-04-05T04:00:24.367Z,7.400
2023-04-05T04:01:23.318Z,7.300
2023-04-05T04:02:23.232Z,7.699
2023-04-05T04:03:23.249Z,8.600
2023-04-05T04:04:23.218Z,9.199
2023-04-05T04:05:23.350Z,8.300
2023-04-05T04:06:23.273Z,8.600
2023-04-05T04:07:23.117Z,7.800
2023-04-05T04:08:22.719Z,8.100
2023-04-05T04:09:22.786Z,8.300
2023-04-05T04:10:23.750Z,8.199
2023-04-05T04:11:23.091Z,7.699
2023-04-05T04:12:23.685Z,8.300
2023-04-05T04:13:23.742Z,7.5
2023-04-05T04:14:23.044Z,7.699
2023-04-05T04:15:23.293Z,8.300
2023-04-05T04:16:23.697Z,8.600
2023-04-05T04:17:22.918Z,8.800
2023-04-05T04:18:23.258Z,7.300
2023-04-05T04:19:23.221Z,8.399
2023-04-05T04:21:23.506Z,7
2023-04-05T04:22:23.366Z,8.300
2023-04-05T04:23:23.339Z,8.699
2023-04-05T04:24:23.254Z,8.800
2023-04-05T04:25:23.419Z,8.5
2023-04-05T04:26:22.913Z,8.199
2023-04-05T04:27:23.058Z,7.400
2023-04-05T04:28:22.911Z,7.800
2023-04-05T04:29:23.226Z,7.699
2023-04-05T04:30:23.683Z,8.199
2023-04-05T04:31:23.720Z,8.100
2023-04-05T04:32:23.498Z,7.199
2023-04-05T04:33:23.187Z,7.400
2023-04-05T04:34:23.239Z,8.199
2023-04-05T04:35:23.465Z,7.5
2023-04-05T04:36:23.506Z,8.600
2023-04-05T04:37:23.228Z,7.599
2023-04-05T04:38:23.031Z,8
2023-04-05T04:39:23.296Z,7.800
2023-04-05T04:40:23.200Z,8.399
2023-04-05T04:41:23.977Z,7.800
2023-04-05T04:42:23.342Z,8.699
2023-04-05T04:43:23.581Z,8
2023-04-05T04:44:23.005Z,6.800
2023-04-05T04:45:23.220Z,7.300
2023-04-05T04:46:23.668Z,7.900
2023-04-05T04:47:23.661Z,8.300
2023-04-05T04:48:22.996Z,8.399
2023-04-05T04:49:23.214Z,6.900
2023-04-05T04:50:23.594Z,7
2023-04-05T04:51:23.554Z,8.600
2023-04-05T04:52:23.731Z,7.800
2023-04-05T04:53:24.430Z,7.699
2023-04-05T04:54:23.862Z,7.900
2023-04-05T04:55:23.364Z,7.800
2023-04-05T04:56:23.682Z,7.599
2023-04-05T04:57:23.374Z,7
2023-04-05T04:58:23.412Z,8.199
2023-04-05T04:59:23.386Z,7.699
2023-04-05T05:02:27.159Z,7.699
2023-04-05T05:03:23.557Z,7.5
2023-04-05T05:05:23.775Z,7.599
2023-04-05T05:06:23.062Z,8.899
2023-04-05T05:08:28.030Z,8.100
2023-04-05T05:09:22.896Z,7.599
2023-04-05T05:10:23.333Z,8.5
2023-04-05T05:11:23.414Z,7.900
2023-04-05T05:12:24.048Z,9
2023-04-05T05:13:23.058Z,7.900
2023-04-05T05:14:23.236Z,8.800
2023-04-05T05:15:23.868Z,7.599
2023-04-05T05:16:23.142Z,9.399
2023-04-05T05:17:23.373Z,7.400
2023-04-05T05:19:23.984Z,8.5
2023-04-05T05:20:23.804Z,8
2023-04-05T05:21:23.191Z,7.400
2023-04-05T05:22:23.421Z,8.600
2023-04-05T05:23:23.335Z,7.400
2023-04-05T05:24:23.774Z,8.899
2023-04-05T05:25:23.593Z,8
2023-04-05T05:26:24.322Z,7.699
2023-04-05T05:27:23.929Z,7.900
2023-04-05T05:28:23.450Z,7.699
2023-04-05T05:29:22.882Z,8.399
2023-04-05T05:30:23.883Z,9.199
2023-04-05T05:31:23.253Z,7.599
2023-04-05T05:32:23.800Z,8.699
2023-04-05T05:33:22.604Z,7.400
2023-04-05T05:34:23.173Z,7.699
2023-04-05T05:35:23.202Z,9
2023-04-05T05:36:23.808Z,8.800
2023-04-05T05:37:22.849Z,8.399
2023-04-05T05:38:23.511Z,8.100
2023-04-05T05:39:23.526Z,7.300
2023-04-05T05:40:23.800Z,7.199
2023-04-05T05:41:23.562Z,7.300
2023-04-05T05:42:23.600Z,7.400
2023-04-05T05:43:23.188Z,8.699
2023-04-05T05:44:23.444Z,7.5
2023-04-05T05:45:23.684Z,7.900
2023-04-05T05:46:23.398Z,7.400
2023-04-05T05:47:24.008Z,7.099
2023-04-05T05:48:23.291Z,7.300
2023-04-05T05:49:23.722Z,7.900
2023-04-05T05:50:23.651Z,8.399
2023-04-05T05:51:23.334Z,6.699
2023-04-05T05:52:23.470Z,9.199
2023-04-05T05:53:23.412Z,7.5
2023-04-05T05:54:23.984Z,7.599
2023-04-05T05:55:23.444Z,7
2023-04-05T05:56:23.792Z,8
2023-04-05T05:57:23.341Z,8.399
2023-04-05T05:58:23.515Z,7.400
2023-04-05T05:59:23.297Z,7.699
2023-04-05T06:00:24.467Z,6.599
2023-04-05T06:01:23.444Z,7.099
2023-04-05T06:02:23.382Z,6.900
2023-04-05T06:03:23.516Z,7.5
2023-04-05T06:04:23.300Z,7.800
2023-04-05T06:05:23.810Z,7.599
2023-04-05T06:06:23.298Z,7.199
2023-04-05T06:07:23.135Z,6.400
2023-04-05T06:08:23.590Z,7
2023-04-05T06:09:24.031Z,8.100
2023-04-05T06:10:23.119Z,7.099
2023-04-05T06:11:23.285Z,7.900
2023-04-05T06:12:23.518Z,7
2023-04-05T06:13:23.753Z,7.5
2023-04-05T06:14:23.175Z,6.800
2023-04-05T06:15:23.438Z,8
2023-04-05T06:16:23.144Z,7.599
2023-04-05T06:17:23.971Z,7.300
2023-04-05T06:18:23.347Z,7.699
2023-04-05T06:19:23.380Z,7.099
2023-04-05T06:20:23.790Z,8.5
2023-04-05T06:21:23.892Z,7.5
2023-04-05T06:22:23.075Z,9.300
2023-04-05T06:23:23.494Z,8.100
2023-04-05T06:24:23.489Z,7.800
2023-04-05T06:25:24.420Z,8.199
2023-04-05T06:26:23.839Z,8.899
2023-04-05T06:27:23.627Z,7.199
2023-04-05T06:28:23.058Z,8.600
2023-04-05T06:30:24.031Z,8
2023-04-05T06:31:23.776Z,6.699
2023-04-05T06:32:23.125Z,8.100
2023-04-05T06:33:23.045Z,8
2023-04-05T06:34:28.241Z,7.5
2023-04-05T06:35:23.594Z,7.199
2023-04-05T06:36:25.036Z,9
2023-04-05T06:37:23.497Z,8
2023-04-05T06:38:23.730Z,8.5
2023-04-05T06:39:23.430Z,7.400
2023-04-05T06:40:31.819Z,9
2023-04-05T06:41:23.347Z,8
2023-04-05T06:42:23.012Z,7.400
2023-04-05T06:43:22.956Z,8
2023-04-05T06:44:23.499Z,8.399
2023-04-05T06:45:23.810Z,7.400
2023-04-05T06:46:24.010Z,7.900
2023-04-05T06:47:24.371Z,7.800
2023-04-05T06:48:23.231Z,8.5
2023-04-05T06:49:23.497Z,8.199
2023-04-05T06:50:24.069Z,9
2023-04-05T06:51:22.944Z,8.100
2023-04-05T06:52:23.209Z,7.900
2023-04-05T06:53:23.135Z,8.100
2023-04-05T06:54:23.616Z,8
2023-04-05T06:55:23.412Z,8.699
2023-04-05T06:56:23.205Z,8.100
2023-04-05T06:57:23.236Z,7.800
2023-04-05T06:58:37.006Z,7.699
2023-04-05T06:59:23.427Z,8.600
2023-04-05T07:00:24.489Z,8
2023-04-05T07:01:23.380Z,7.5
2023-04-05T07:02:23.557Z,9.800
2023-04-05T07:03:23.451Z,9.399
2023-04-05T07:04:23.649Z,8
2023-04-05T07:05:24.042Z,9
2023-04-05T07:06:23.030Z,8.5
2023-04-05T07:08:23.619Z,8.300
2023-04-05T07:10:23.984Z,10.60
2023-04-05T07:11:23.440Z,8.800
2023-04-05T07:12:23.729Z,9
2023-04-05T07:13:23.327Z,9.399
2023-04-05T07:14:23.942Z,8.800
2023-04-05T07:15:23.870Z,7.900
2023-04-05T07:16:23.921Z,7.099
2023-04-05T07:17:23.401Z,8.699
2023-04-05T07:19:23.968Z,7.599
2023-04-05T07:21:27.038Z,7.800
2023-04-05T07:22:23.620Z,8.899
2023-04-05T07:23:23.690Z,10.69
2023-04-05T07:25:26.948Z,8.800
2023-04-05T07:26:23.023Z,9.899
2023-04-05T07:27:23.458Z,10.60
2023-04-05T07:28:23.599Z,8.600
2023-04-05T07:29:23.431Z,8.899
2023-04-05T07:30:24.129Z,8.800
2023-04-05T07:31:23.699Z,9.5
2023-04-05T07:32:23.509Z,8.399
2023-04-05T07:33:23.819Z,8.600
2023-04-05T07:34:23.615Z,9.399
2023-04-05T07:35:23.106Z,8.800
2023-04-05T07:36:23.367Z,10.39
2023-04-05T07:37:22.751Z,9
2023-04-05T07:38:23.260Z,10.89
2023-04-05T07:39:23.383Z,9
2023-04-05T07:40:24.011Z,10.19
2023-04-05T07:41:23.198Z,10.5
2023-04-05T07:42:23.613Z,10.10
2023-04-05T07:43:22.739Z,8.5
2023-04-05T07:44:23.029Z,9.5
2023-04-05T07:45:23.317Z,9.199
2023-04-05T07:46:23.840Z,8.5
2023-04-05T07:47:23.467Z,10.80
2023-04-05T07:48:23.461Z,9.600
2023-04-05T07:49:23.479Z,10.10
2023-04-05T07:50:23.516Z,10.5
2023-04-05T07:51:23.319Z,10.30
2023-04-05T07:52:23.633Z,9.699
2023-04-05T07:53:22.105Z,9
2023-04-05T07:54:23.375Z,9.399
2023-04-05T07:55:23.796Z,8.899
2023-04-05T07:56:23.310Z,10.39
2023-04-05T07:58:22.847Z,10.10
2023-04-05T07:59:23.068Z,9.699
2023-04-05T08:00:23.907Z,12
2023-04-05T08:01:23.671Z,9.800
2023-04-05T08:02:22.983Z,9
2023-04-05T08:03:23.141Z,10.10
2023-04-05T08:04:23.540Z,8.899
2023-04-05T08:05:23.135Z,8.399
2023-04-05T08:06:23.399Z,12.19
2023-04-05T08:07:22.980Z,11.5
2023-04-05T08:08:23.462Z,10.10
2023-04-05T08:10:23.302Z,10.5
2023-04-05T08:11:23.060Z,11.19
2023-04-05T08:12:23.697Z,10.5
2023-04-05T08:13:23.505Z,10.10
2023-04-05T08:14:23.501Z,9.100
2023-04-05T08:15:24.106Z,9.300
2023-04-05T08:16:23.440Z,8.699
2023-04-05T08:17:23.356Z,9.899
2023-04-05T08:18:22.693Z,10.60
2023-04-05T08:19:23.466Z,13.80
2023-04-05T08:20:22.729Z,9
2023-04-05T08:21:23.117Z,10.69
2023-04-05T08:22:23.339Z,9.399
2023-04-05T08:23:23.714Z,10.10
2023-04-05T08:24:22.988Z,9.300
2023-04-05T08:25:23.450Z,9.100
2023-04-05T08:26:22.825Z,10
2023-04-05T08:27:23.258Z,9
2023-04-05T08:28:23.729Z,9.899
2023-04-05T08:30:24.076Z,8.699
2023-04-05T08:31:23.010Z,11.60
2023-04-05T08:32:23.445Z,8.5
2023-04-05T08:33:23.684Z,9
2023-04-05T08:34:23.621Z,8.300
2023-04-05T08:35:23.185Z,9.399
2023-04-05T08:36:23.577Z,10.39
2023-04-05T08:37:23.011Z,10
2023-04-05T08:38:22.806Z,11.80
2023-04-05T08:39:23.577Z,11.19
2023-04-05T08:40:23.192Z,9.800
2023-04-05T08:41:23.210Z,10.30
2023-04-05T08:42:23.284Z,11.60
2023-04-05T08:43:23.277Z,10.19
2023-04-05T08:44:23.407Z,9.600
2023-04-05T08:45:23.476Z,10.60
2023-04-05T08:46:23.470Z,11.89
2023-04-05T08:47:23.316Z,14.19
2023-04-05T08:48:23.665Z,10.19
2023-04-05T08:49:23.363Z,9.600
2023-04-05T08:50:23.314Z,10.60
2023-04-05T08:51:28.442Z,11.60
2023-04-05T08:52:23.097Z,11.10
2023-04-05T08:53:23.358Z,12.39
2023-04-05T08:54:23.120Z,11.10
2023-04-05T08:55:23.221Z,11.60
2023-04-05T08:56:23.476Z,10.39
2023-04-05T08:57:23.849Z,9.600
2023-04-05T08:58:23.001Z,9.399
2023-04-05T08:59:23.221Z,11.69
2023-04-05T09:00:24.019Z,8.800
2023-04-05T09:01:23.678Z,10.19
2023-04-05T09:02:23.087Z,10.69
2023-04-05T09:03:23.645Z,10.5
2023-04-05T09:04:23.288Z,11.10
2023-04-05T09:05:23.584Z,10.80
2023-04-05T09:06:23.429Z,11.10
2023-04-05T09:07:31.499Z,11.80
2023-04-05T09:08:23.687Z,10.60
2023-04-05T09:09:23.078Z,9.800
2023-04-05T09:10:23.644Z,10.60
2023-04-05T09:11:23.207Z,11.5
2023-04-05T09:12:23.406Z,11
2023-04-05T09:13:23.834Z,11.89
2023-04-05T09:15:23.314Z,11.60
2023-04-05T09:16:23.540Z,10.80
2023-04-05T09:17:23.248Z,11
2023-04-05T09:18:27.293Z,10.5
2023-04-05T09:19:22.929Z,12.69
2023-04-05T09:20:23.201Z,10.30
2023-04-05T09:21:23.249Z,12.30
2023-04-05T09:22:23.679Z,10
2023-04-05T09:23:23.108Z,10.89
2023-04-05T09:24:23.315Z,12.10
2023-04-05T09:25:23.112Z,11.5
2023-04-05T09:26:23.433Z,13.60
2023-04-05T09:27:23.138Z,10.89
2023-04-05T09:28:23.405Z,11.10
2023-04-05T09:29:23.230Z,11.69
2023-04-05T09:30:23.678Z,9.5
2023-04-05T09:31:22.768Z,9.899
2023-04-05T09:32:22.914Z,11.10
2023-04-05T09:33:23.009Z,11.39
2023-04-05T09:34:22.962Z,11.19
2023-04-05T09:35:23.244Z,10.5
2023-04-05T09:36:23.610Z,9.899
2023-04-05T09:37:23.288Z,11.89
2023-04-05T09:38:23.887Z,11.39
2023-04-05T09:39:23.422Z,10
2023-04-05T09:40:23.614Z,11.39
2023-04-05T09:41:23.122Z,10.5
2023-04-05T09:42:23.494Z,9.699
2023-04-05T09:43:22.906Z,10.19
2023-04-05T09:44:23.274Z,10.60
2023-04-05T09:45:23.845Z,11.19
2023-04-05T09:46:23.449Z,10.69
2023-04-05T09:47:23.837Z,10.5
2023-04-05T09:48:23.268Z,11.60
2023-04-05T09:49:23.735Z,10.39
2023-04-05T09:50:23.087Z,9.199
2023-04-05T09:51:23.822Z,10.19
2023-04-05T09:52:23.530Z,10.5
2023-04-05T09:53:23.335Z,10.69
2023-04-05T09:54:23.043Z,9.300
2023-04-05T09:55:23.706Z,12.39
2023-04-05T09:56:23.981Z,10.89
2023-04-05T09:57:23.628Z,10.30
2023-04-05T09:58:23.550Z,11.69
2023-04-05T09:59:23.026Z,10.30
2023-04-05T10:00:24.452Z,12
2023-04-05T10:01:23.395Z,11.80
2023-04-05T10:02:23.242Z,11.60
2023-04-05T10:03:23.255Z,11.80
2023-04-05T10:04:23.781Z,10.39
2023-04-05T10:05:23.420Z,10.5
2023-04-05T10:06:23.847Z,10.39
2023-04-05T10:07:23.837Z,10.60
2023-04-05T10:08:23.304Z,10
2023-04-05T10:09:23.558Z,9.5
2023-04-05T10:10:23.082Z,10.10
2023-04-05T10:12:23.330Z,10.5
2023-04-05T10:13:23.443Z,10.69
2023-04-05T10:14:23.943Z,10
2023-04-05T10:15:23.650Z,9.300
2023-04-05T10:16:23.744Z,9.5
2023-04-05T10:17:23.327Z,10.69
2023-04-05T10:18:23.863Z,10
2023-04-05T10:19:23.112Z,10.80
2023-04-05T10:20:23.922Z,10.69
2023-04-05T10:21:23.080Z,12.39
2023-04-05T10:22:23.444Z,11.10
2023-04-05T10:23:23.345Z,10
2023-04-05T10:24:24.096Z,10.30
2023-04-05T10:25:23.178Z,11.60
2023-04-05T10:26:23.592Z,9.899
2023-04-05T10:27:23.847Z,11.19
2023-04-05T10:28:22.876Z,10.19
2023-04-05T10:29:23.669Z,11.30
2023-04-05T10:30:24.256Z,11.69
2023-04-05T10:31:36.343Z,11.10
2023-04-05T10:32:23.529Z,10.30
2023-04-05T10:33:23.152Z,10.89
2023-04-05T10:34:23.469Z,11.69
2023-04-05T10:35:23.310Z,10.39
2023-04-05T10:36:23.579Z,10.10
2023-04-05T10:37:23.737Z,8.800
2023-04-05T10:38:23.518Z,9.699
2023-04-05T10:39:23.814Z,11
2023-04-05T10:40:23.859Z,10.30
2023-04-05T10:41:23.019Z,9.699
2023-04-05T10:42:23.787Z,10.30
2023-04-05T10:43:23.092Z,8.800
2023-04-05T10:44:26.623Z,11.69
2023-04-05T10:45:23.802Z,9.699
2023-04-05T10:47:24.095Z,11.10
2023-04-05T10:48:23.969Z,9.800
2023-04-05T10:49:24.030Z,10.60
2023-04-05T10:50:23.550Z,8.699
2023-04-05T10:51:23.191Z,10.10
2023-04-05T10:52:24.008Z,10
2023-04-05T10:53:23.456Z,11.5
2023-04-05T10:54:23.222Z,12
2023-04-05T10:55:23.899Z,10.69
2023-04-05T10:56:23.442Z,9.399
2023-04-05T10:57:23.151Z,10
2023-04-05T10:58:23.554Z,10.5
2023-04-05T10:59:23.875Z,11.30
2023-04-05T11:00:24.750Z,10.80
2023-04-05T11:01:24.251Z,9.399
2023-04-05T11:03:23.366Z,10.60
2023-04-05T11:04:23.743Z,11.30
2023-04-05T11:05:23.922Z,9.600
2023-04-05T11:06:23.235Z,10.60
2023-04-05T11:07:23.602Z,12.60
2023-04-05T11:08:23.461Z,10
2023-04-05T11:09:23.001Z,10.19
2023-04-05T11:10:23.727Z,10.30
2023-04-05T11:11:23.228Z,10.60
2023-04-05T11:12:23.842Z,10.19
2023-04-05T11:13:23.290Z,11.69
2023-04-05T11:14:23.001Z,10.69
2023-04-05T11:15:23.365Z,10.30
2023-04-05T11:16:23.766Z,11.10
2023-04-05T11:17:23.713Z,8.399
2023-04-05T11:18:28.300Z,11
2023-04-05T11:19:23.429Z,9.199
2023-04-05T11:20:23.731Z,9.600
2023-04-05T11:21:23.402Z,9.699
2023-04-05T11:22:28.912Z,9.399
2023-04-05T11:23:23.773Z,10.69
2023-04-05T11:24:28.477Z,10.19
2023-04-05T11:25:23.405Z,11
2023-04-05T11:26:23.675Z,9.600
2023-04-05T11:27:23.404Z,10.89
2023-04-05T11:28:31.392Z,8.699
2023-04-05T11:29:23.119Z,9.600
2023-04-05T11:30:24.013Z,9.800
2023-04-05T11:31:23.327Z,8.300
2023-04-05T11:32:31.060Z,9.300
2023-04-05T11:33:23.563Z,9.699
2023-04-05T11:34:24.692Z,8.699
2023-04-05T11:35:23.993Z,9.5
2023-04-05T11:36:23.884Z,9.199
2023-04-05T11:37:23.511Z,10.10
2023-04-05T11:38:37.832Z,8
2023-04-05T11:39:23.142Z,9.300
2023-04-05T11:40:23.681Z,11.60
2023-04-05T11:41:22.921Z,9.199
2023-04-05T11:42:23.393Z,9.300
2023-04-05T11:43:23.381Z,8.199
2023-04-05T11:44:23.730Z,9.600
2023-04-05T11:45:23.226Z,8.899
2023-04-05T11:46:24.576Z,10.10
2023-04-05T11:48:23.314Z,9.800
2023-04-05T11:49:23.480Z,8.300
2023-04-05T11:50:23.997Z,10.39
2023-04-05T11:51:24.537Z,8.5
2023-04-05T11:52:38.321Z,8.800
2023-04-05T11:53:24.025Z,10.30
2023-04-05T11:54:23.890Z,8.199
2023-04-05T11:55:23.232Z,8.800
2023-04-05T11:56:42.660Z,9.399
2023-04-05T11:57:23.592Z,7.800
2023-04-05T11:58:23.498Z,9.300
2023-04-05T11:59:22.833Z,9.199
2023-04-05T12:00:24.174Z,8.800
2023-04-05T12:01:23.510Z,9.100
2023-04-05T12:02:23.846Z,10.5
2023-04-05T12:03:23.222Z,8.899
2023-04-05T12:04:46.030Z,7.900
2023-04-05T12:05:22.784Z,9.300
2023-04-05T12:06:23.340Z,10.69
2023-04-05T12:07:23.978Z,9.199
2023-04-05T12:08:23.260Z,8.899
2023-04-05T12:09:23.670Z,8.300
2023-04-05T12:10:22.974Z,7.699
2023-04-05T12:11:23.253Z,7.599
2023-04-05T12:12:23.705Z,7.900
2023-04-05T12:13:23.260Z,8.399
2023-04-05T12:14:23.662Z,8.300
2023-04-05T12:16:24.215Z,8.699
2023-04-05T12:17:24.223Z,8.399
2023-04-05T12:18:23.740Z,9.800
2023-04-05T12:19:22.789Z,9
2023-04-05T12:20:22.975Z,8.800
2023-04-05T12:21:23.349Z,9.100
2023-04-05T12:22:23.943Z,9.300
2023-04-05T12:23:23.137Z,9.100
2023-04-05T12:24:23.177Z,8.300
2023-04-05T12:25:23.900Z,10
2023-04-05T12:26:23.656Z,8.5
2023-04-05T12:27:23.505Z,9.300
2023-04-05T12:28:22.925Z,8.199
2023-04-05T12:29:23.569Z,8.5
2023-04-05T12:30:23.817Z,8.800
2023-04-05T12:31:23.553Z,8.399
2023-04-05T12:32:23.805Z,8.899
2023-04-05T12:33:23.909Z,10
2023-04-05T12:34:23.192Z,8.800
2023-04-05T12:35:23.443Z,9.600
2023-04-05T12:36:23.435Z,8.600
2023-04-05T12:37:23.686Z,9.600
2023-04-05T12:38:23.377Z,10.30
2023-04-05T12:39:24.208Z,8.399
2023-04-05T12:40:23.276Z,8
2023-04-05T12:41:23.581Z,9
2023-04-05T12:42:22.965Z,9.699
2023-04-05T12:43:23.638Z,8.199
2023-04-05T12:45:24.182Z,9.5
2023-04-05T12:46:23.538Z,8.199
2023-04-05T12:47:23.342Z,9.699
2023-04-05T12:48:23.416Z,10.30
2023-04-05T12:49:23.864Z,9.199
2023-04-05T12:50:23.537Z,9.300
2023-04-05T12:51:23.886Z,8.199
2023-04-05T12:52:23.709Z,8.600
2023-04-05T12:53:23.141Z,8.699
2023-04-05T12:54:23.103Z,8.899
2023-04-05T12:56:23.932Z,8.600
2023-04-05T12:57:23.505Z,9.600
2023-04-05T12:58:23.029Z,8.600
2023-04-05T12:59:23.413Z,9.199
2023-04-05T13:00:24.919Z,8.5
2023-04-05T13:01:23.924Z,9
2023-04-05T13:02:23.107Z,8.5
2023-04-05T13:03:23.323Z,9
2023-04-05T13:04:23.438Z,9.600
2023-04-05T13:05:24.466Z,8.699
2023-04-05T13:06:24.837Z,8.300
2023-04-05T13:07:24.366Z,9
2023-04-05T13:08:24.240Z,9.300
2023-04-05T13:09:23.812Z,8
2023-04-05T13:10:23.499Z,9.899
2023-04-05T13:11:23.628Z,8.800
2023-04-05T13:12:23.134Z,8.899
2023-04-05T13:13:23.807Z,9.800
2023-04-05T13:14:23.758Z,8.399
2023-04-05T13:15:23.812Z,9
2023-04-05T13:16:23.555Z,9.399
2023-04-05T13:17:23.815Z,9.199
2023-04-05T13:18:24.019Z,11
2023-04-05T13:19:23.915Z,10.69
2023-04-05T13:20:23.775Z,8.800
2023-04-05T13:21:23.873Z,8.699
2023-04-05T13:22:23.982Z,9.100
2023-04-05T13:23:23.660Z,10.19
2023-04-05T13:24:23.519Z,10.60
2023-04-05T13:25:23.566Z,10.10
2023-04-05T13:26:23.604Z,9.899
2023-04-05T13:27:23.726Z,9.199
2023-04-05T13:28:23.668Z,9.100
2023-04-05T13:29:23.691Z,12.80
2023-04-05T13:30:23.867Z,10
2023-04-05T13:31:23.780Z,8.899
2023-04-05T13:32:23.317Z,9.600
2023-04-05T13:33:23.480Z,9.800
2023-04-05T13:34:23.185Z,9.899
2023-04-05T13:35:24.379Z,8.300
2023-04-05T13:36:24.365Z,10.5
2023-04-05T13:37:23.393Z,9.399